The Internet Pinball Serial Number Database or IPSND collects serial numbers of pinball machines and publishes a database of these on the Internet. Our goal is to make available a registration of all pinball machines in existence and allow tools for slicing, dicing and visualization of the data.

Games: 6,703  Serials: 69,628  Visitors: 78,483,728  Members: 5,726  Photos: 45,085  Lat/Lng: 38,445  Masks: 69,628(1,038.76%)  Traits: 572  Nudges: 228,661  Backglasses: 1,865
  Most Serials: Twilight Zone(1,334)  Most Submissions: Dennis Braun(6,144)  Most Points: Dennis Braun(45,740)  Highest Quality: The Knight(17.00)  Most Nudges: pinballservice-nl(29,145)
Submitter: Fun House
Member Since: Thursday, September 22, 2016
Submissions: 4,341 (2nd)
SerialBot: 36,022 Points Total (2nd), 7.30 Average Score (4,741st)
Nudges: 4,322(14th)
DateGameSerialNumberGame PartSerialBotDetails
 Item 1 to 100 of 4341
Page:of 44 Page size:
7/12/2024 Hurricane 50012830591 Other Parts 50012830591
7/12/2024 White Water 50418842900 Other Parts 50418842900
7/9/2024 Bram Stoker's Dracula 50101053832 Complete Game 50101053832
6/26/2024 Red & Ted's Road Show 51024105073 Complete Game 51024105073
6/25/2024 Star Trek EST8182 Complete Game EST8182
6/24/2024 Twilight Zone 51420067171 Complete Game 51420067171
6/4/2024 Thunderball (James Bond 007 Limited Edition) E347783C Complete Game E347783C
6/4/2024 Thunderball (James Bond 007 Limited Edition) E347781C Complete Game E347781C
6/4/2024 Corvette 50236100787 Complete Game 50236100787
6/4/2024 Indianapolis 500 50326101160 Other Parts 50326101160
6/4/2024 Indianapolis 500 53326100770 Other Parts 53326100770
6/4/2024 KISS EKI11110 Complete Game EKI11110
6/4/2024 PIN·BOT 549I03877 Complete Game 549I03877
6/1/2024 Banzai Run 566I136762 Complete Game 566I136762
5/26/2024 Varkon 588461 Complete Game 588461
5/26/2024 Popeye Saves the Earth 50422375532 Other Parts 50422375532
5/26/2024 F-14 Tomcat 554106435 Other Parts 554106435
4/28/2024 Bad Cats 575310371 Complete Game 575310371
4/28/2024 Police Force 573271961 Other Parts 573271961
4/28/2024 Bad Cats 575310131 Complete Game 575310131
4/28/2024 Bad Cats 575310062 Complete Game 575310062
4/22/2024 Time Machine 00412481 Complete Game 00412481
4/14/2024 Lights...Camera...Action! 64233 Complete Game 64233
3/31/2024 Whirlwind 574I336541 Other Parts 574I336541
3/31/2024 Indiana Jones: The Pinball Adventure 52517148512 Complete Game 52517148512
3/19/2024 Guns N' Roses Not In This Lifetime (Limited Edition) 087513288 Complete Game 087513288
3/19/2024 F-14 Tomcat 554105282 Complete Game 554105282
3/18/2024 Cirqus Voltaire 53362401231 Complete Game 53362401231
3/18/2024 The Simpsons Pinball Party 175742 Complete Game 175742
3/18/2024 Star Wars The Mandalorian (Pro) 330991C Complete Game 330991C
3/17/2024 Indiana Jones: The Pinball Adventure 52217095172 Other Parts 52217095172
3/17/2024 Red & Ted's Road Show 51424101026 Other Parts 51424101026
3/17/2024 WHO dunnit 51444101743 Complete Game 51444101743
3/17/2024 Whirlwind 574I336944 Other Parts 574I336944
3/17/2024 Whirlwind 574I336950 Complete Game 574I336950
3/17/2024 World Cup Soccer 51431102656 Other Parts 51431102656
3/17/2024 The Addams Family 20017I042599 Other Parts 20017I042599
3/17/2024 Theatre of Magic 51439100779 Complete Game 51439100779
3/17/2024 The Getaway: High Speed II 50004I857281 Other Parts 50004I857281
3/17/2024 Popeye Saves the Earth 50222331222 Other Parts 50222331222
3/17/2024 Theatre of Magic 51439100802 Complete Game 51439100802
3/17/2024 Corvette 51436101605 Other Parts 51436101605
3/17/2024 20013I965493 Other Parts 20013I965493
3/17/2024 Theatre of Magic 50239101822 Complete Game 50239101822
3/17/2024 Police Force 573272219 Other Parts 573272219
3/17/2024 Riverboat Gambler 50007I505884 Other Parts 50007I505884
3/17/2024 Rollergames 576I365093 Complete Game 576I365093
3/17/2024 Red & Ted's Road Show 51424100139 Other Parts 51424100139
3/17/2024 Firepower 425768 Complete Game 425768
3/17/2024 WHO dunnit 51444100134 Other Parts 51444100134
3/17/2024 Demolition Man 51428450832 Other Parts 51428450832
3/17/2024 Corvette 51436100588 Other Parts 51436100588
3/17/2024 Revenge From Mars 51470101841 Complete Game 51470101841
3/17/2024 Terminator 2: Judgment Day 50013I976917 Other Parts 50013I976917
3/17/2024 Johnny Mnemonic 51442101452 Complete Game 51442101452
3/17/2024 Popeye Saves the Earth 53322338222 Other Parts 53322338222
3/17/2024 The Flintstones 52229101350 Other Parts 52229101350
3/17/2024 The Shadow 52832101411 Other Parts 52832101411
3/17/2024 Jack·Bot 52251101281 Complete Game 52251101281
3/17/2024 Red & Ted's Road Show 53324100525 Other Parts 53324100525
3/17/2024 Jack·Bot 52551101857 Complete Game 52551101857
3/17/2024 The Getaway: High Speed II 50004I855551 Complete Game 50004I855551
3/17/2024 The Getaway: High Speed II 50004I858425 Complete Game 50004I858425
3/17/2024 Funhouse 50003I579450 Complete Game 50003I579450
3/17/2024 Dr. Dude And His Excellent Ray 2016I496576 Other Parts 2016I496576
3/17/2024 Dr. Dude And His Excellent Ray 2016I495190 Complete Game 2016I495190
3/17/2024 Indiana Jones: The Pinball Adventure 51417095032 Other Parts 51417095032
3/17/2024 Doctor Who 22706688840 Complete Game 22706688840
3/17/2024 Creature from the Black Lagoon 20218967580 Complete Game 20218967580
3/17/2024 Joust 1949 Complete Game 1949
3/17/2024 White Water 50118915330 Complete Game 50118915330
3/17/2024 Terminator 2: Judgment Day 50013773670 Other Parts 50013773670
3/11/2024 2072018762 Other Parts 2072018762
3/11/2024 White Water 50718829120 Complete Game 50718829120
2/26/2024 White Water 50718805020 Other Parts 50718805020
2/26/2024 Terminator 2: Judgment Day 50013774800 Other Parts 50013774800
2/26/2024 Hurricane 50012831376 Other Parts 50012831376
2/25/2024 Jurassic Park (Pro) 339035C Complete Game 339035C
2/25/2024 Indiana Jones: The Pinball Adventure 53317197122 Other Parts 53317197122
2/25/2024 High Speed 541I77839 Other Parts 541I77839
2/25/2024 Black Knight 2000 563I247159 Other Parts 563I247159
2/25/2024 No Fear: Dangerous Sports 50325101545 Other Parts 50325101545
2/25/2024 Doctor Who 20206676270 Other Parts 20206676270
2/25/2024 Mystic EMY3429 Other Parts EMY3429
2/25/2024 Grand Lizard 523I36592 Other Parts 523I36592
2/25/2024 PIN·BOT 549I03836 Other Parts 549I03836
2/25/2024 The Getaway: High Speed II 50004I857938 Other Parts 50004I857938
2/25/2024 Transporter the Rescue 2008260258 Other Parts 2008260258
2/24/2024 Thunderbirds 037 Complete Game 037
2/24/2024 Centaur ECE3795 Complete Game ECE3795
2/24/2024 Iron Maiden Legacy Of The Beast (Pro) 359639C Complete Game 359639C
2/24/2024 Netflix Stranger Things (Premium) E373744C Complete Game E373744C
2/24/2024 Terminator 2: Judgment Day 50013773124 Complete Game 50013773124
2/4/2024 Whirlwind 574I335112 Other Parts 574I335112
1/29/2024 Embryon EEM1338 Complete Game EEM1338
1/29/2024 Indiana Jones: The Pinball Adventure 50217255422 Other Parts 50217255422
12/28/2023 Bad Cats 575I315344 Complete Game 575I315344
12/25/2023 Netflix Stranger Things (Premium) 374358C Complete Game 374358C
12/25/2023 Netflix Stranger Things (Premium) 373996C Complete Game 373996C
12/16/2023 Cybernaut 320 Complete Game 320